createdAt,value
2023-05-10T00:00:21.518Z,77.72
2023-05-10T00:01:23.136Z,77.74
2023-05-10T00:02:25.678Z,77.75
2023-05-10T00:03:27.435Z,77.75
2023-05-10T00:04:29.105Z,77.77
2023-05-10T00:05:30.903Z,77.69
2023-05-10T00:06:32.700Z,77.68
2023-05-10T00:07:34.368Z,77.68
2023-05-10T00:08:36.058Z,77.61
2023-05-10T00:09:37.931Z,77.61
2023-05-10T00:10:39.630Z,77.69
2023-05-10T00:11:41.274Z,77.77
2023-05-10T00:12:43.139Z,77.85
2023-05-10T00:13:44.768Z,77.96
2023-05-10T00:14:46.860Z,78.02
2023-05-10T00:15:48.411Z,78.10
2023-05-10T00:16:50.083Z,78.16
2023-05-10T00:17:51.718Z,78.28
2023-05-10T00:18:53.304Z,78.32
2023-05-10T00:19:56.285Z,78.38
2023-05-10T00:20:57.869Z,78.43
2023-05-10T00:22:00.032Z,78.49
2023-05-10T00:23:01.675Z,78.64
2023-05-10T00:24:03.511Z,78.72
2023-05-10T00:25:05.636Z,78.75
2023-05-10T00:26:07.251Z,78.66
2023-05-10T00:27:09.443Z,78.78
2023-05-10T00:28:11.312Z,78.95
2023-05-10T00:29:12.952Z,79.00
2023-05-10T00:30:14.794Z,79.04
2023-05-10T00:31:16.670Z,79.13
2023-05-10T00:32:18.340Z,79.24
2023-05-10T00:33:20.719Z,79.33
2023-05-10T00:34:22.418Z,79.42
2023-05-10T00:35:24.225Z,79.41
2023-05-10T00:36:25.910Z,79.46
2023-05-10T00:37:27.498Z,79.46
2023-05-10T00:38:30.126Z,79.67
2023-05-10T00:39:31.743Z,79.79
2023-05-10T00:40:33.336Z,79.87
2023-05-10T00:41:34.920Z,79.99
2023-05-10T00:42:36.549Z,80.02
2023-05-10T00:43:38.189Z,80.16
2023-05-10T00:44:39.874Z,80.26
2023-05-10T00:45:41.472Z,80.41
2023-05-10T00:46:43.225Z,80.65
2023-05-10T00:47:44.884Z,80.81
2023-05-10T00:48:46.708Z,81.02
2023-05-10T00:49:48.353Z,81.21
2023-05-10T00:50:50.122Z,81.38
2023-05-10T00:51:51.707Z,81.41
2023-05-10T00:52:53.309Z,81.64
2023-05-10T00:53:54.951Z,81.73
2023-05-10T00:54:56.625Z,81.88
2023-05-10T00:55:58.375Z,81.96
2023-05-10T00:56:59.976Z,82.00
2023-05-10T00:58:02.556Z,82.13
2023-05-10T00:59:04.458Z,82.17
2023-05-10T01:00:08.795Z,82.21
2023-05-10T01:01:11.408Z,82.34
2023-05-10T01:02:14.189Z,82.47
2023-05-10T01:03:16.063Z,82.59
2023-05-10T01:04:17.721Z,82.65
2023-05-10T01:05:19.486Z,82.64
2023-05-10T01:06:21.101Z,82.75
2023-05-10T01:07:22.661Z,83.00
2023-05-10T01:08:24.261Z,83.14
2023-05-10T01:09:27.470Z,83.30
2023-05-10T01:10:30.682Z,83.28
2023-05-10T01:11:32.348Z,83.52
2023-05-10T01:12:35.798Z,83.62
2023-05-10T01:13:38.933Z,83.60
2023-05-10T01:14:40.645Z,83.61
2023-05-10T01:15:42.311Z,83.60
2023-05-10T01:16:43.918Z,83.85
2023-05-10T01:17:46.329Z,83.84
2023-05-10T01:18:47.946Z,83.80
2023-05-10T01:19:49.529Z,83.84
2023-05-10T01:21:01.577Z,83.93
2023-05-10T01:22:21.381Z,83.99
2023-05-10T01:23:37.324Z,84.08
2023-05-10T01:25:12.308Z,84.22
2023-05-10T01:26:35.180Z,84.30
2023-05-10T01:27:49.470Z,84.26
2023-05-10T01:29:31.262Z,84.34
2023-05-10T01:30:47.802Z,84.46
2023-05-10T01:31:52.472Z,84.58
2023-05-10T01:33:16.549Z,84.57
2023-05-10T01:34:20.613Z,84.53
2023-05-10T01:35:27.876Z,84.43
2023-05-10T01:36:33.807Z,84.43
2023-05-10T01:37:50.518Z,84.52
2023-05-10T01:38:54.402Z,84.52
2023-05-10T01:40:04.094Z,84.59
2023-05-10T01:41:17.098Z,84.61
2023-05-10T01:42:22.592Z,84.53
2023-05-10T01:43:27.647Z,84.60
2023-05-10T01:44:29.218Z,84.66
2023-05-10T01:45:38.871Z,84.71
2023-05-10T01:46:40.939Z,84.68
2023-05-10T01:47:47.899Z,84.72
2023-05-10T01:48:49.933Z,84.80
2023-05-10T01:49:53.156Z,84.73
2023-05-10T01:50:54.829Z,84.87
2023-05-10T01:52:00.481Z,84.88
2023-05-10T01:53:02.611Z,84.98
2023-05-10T01:54:04.426Z,84.98
2023-05-10T01:55:07.318Z,84.96
2023-05-10T01:56:08.902Z,84.92
2023-05-10T01:57:10.974Z,84.99
2023-05-10T01:58:14.928Z,85.05
2023-05-10T01:59:17.943Z,85.07
2023-05-10T02:00:20.010Z,84.96
2023-05-10T02:01:21.893Z,85.06
2023-05-10T02:02:23.716Z,85.03
2023-05-10T02:03:25.688Z,85.04
2023-05-10T02:04:27.472Z,85.04
2023-05-10T02:05:29.136Z,85.04
2023-05-10T02:06:30.717Z,85.10
2023-05-10T02:07:32.290Z,85.19
2023-05-10T02:08:34.404Z,85.02
2023-05-10T02:09:36.180Z,84.97
2023-05-10T02:10:37.874Z,84.88
2023-05-10T02:11:40.228Z,84.86
2023-05-10T02:12:46.035Z,84.92
2023-05-10T02:13:48.417Z,84.97
2023-05-10T02:14:49.990Z,84.98
2023-05-10T02:15:51.616Z,84.94
2023-05-10T02:16:53.251Z,85.05
2023-05-10T02:17:56.069Z,85.04
2023-05-10T02:18:57.686Z,85.09
2023-05-10T02:20:00.070Z,85.13
2023-05-10T02:21:01.811Z,85.07
2023-05-10T02:22:03.610Z,85.19
2023-05-10T02:23:05.268Z,85.11
2023-05-10T02:24:07.029Z,85.20
2023-05-10T02:25:09.159Z,85.15
2023-05-10T02:26:10.828Z,85.17
2023-05-10T02:27:12.423Z,85.06
2023-05-10T02:28:14.179Z,85.06
2023-05-10T02:29:15.790Z,85.08
2023-05-10T02:30:17.912Z,84.99
2023-05-10T02:31:20.514Z,84.97
2023-05-10T02:32:22.745Z,84.88
2023-05-10T02:33:24.562Z,84.88
2023-05-10T02:34:29.333Z,84.86
2023-05-10T02:35:30.992Z,84.89
2023-05-10T02:36:32.972Z,84.94
2023-05-10T02:37:34.604Z,85.02
2023-05-10T02:38:36.196Z,84.95
2023-05-10T02:39:37.920Z,84.96
2023-05-10T02:40:39.563Z,84.90
2023-05-10T02:41:44.538Z,84.84
2023-05-10T02:42:46.128Z,84.79
2023-05-10T02:43:47.714Z,84.73
2023-05-10T02:44:50.539Z,84.66
2023-05-10T02:45:52.200Z,84.59
2023-05-10T02:46:53.883Z,84.62
2023-05-10T02:47:55.897Z,84.56
2023-05-10T02:48:57.498Z,84.61
2023-05-10T02:49:59.059Z,84.62
2023-05-10T02:51:02.724Z,84.72
2023-05-10T02:52:06.784Z,84.81
2023-05-10T02:53:11.851Z,84.75
2023-05-10T02:54:25.664Z,84.78
2023-05-10T02:55:28.743Z,84.76
2023-05-10T02:56:33.196Z,84.85
2023-05-10T02:57:35.091Z,84.93
2023-05-10T02:58:36.747Z,84.98
2023-05-10T02:59:38.497Z,85.05
2023-05-10T03:00:40.081Z,85.15
2023-05-10T03:01:41.718Z,85.21
2023-05-10T03:02:43.384Z,85.51
2023-05-10T03:03:45.072Z,85.53
2023-05-10T03:04:46.699Z,85.52
2023-05-10T03:05:48.374Z,85.57
2023-05-10T03:06:50.014Z,85.67
2023-05-10T03:07:52.019Z,85.78
2023-05-10T03:08:53.645Z,85.83
2023-05-10T03:09:55.600Z,85.88
2023-05-10T03:11:03.888Z,85.87
2023-05-10T03:12:11.466Z,85.79
2023-05-10T03:13:40.992Z,85.61
2023-05-10T03:15:21.790Z,85.66
2023-05-10T03:16:36.931Z,85.65
2023-05-10T03:17:53.717Z,85.59
2023-05-10T03:19:03.570Z,85.58
2023-05-10T03:20:08.685Z,85.49
2023-05-10T03:21:13.399Z,85.41
2023-05-10T03:22:14.994Z,85.46
2023-05-10T03:23:19.507Z,85.43
2023-05-10T03:24:24.366Z,85.32
2023-05-10T03:25:26.163Z,85.21
2023-05-10T03:26:28.296Z,85.33
2023-05-10T03:27:29.893Z,85.37
2023-05-10T03:28:31.476Z,85.46
2023-05-10T03:29:33.093Z,85.55
2023-05-10T03:30:34.738Z,85.42
2023-05-10T03:31:36.464Z,85.17
2023-05-10T03:32:38.145Z,85.14
2023-05-10T03:33:50.034Z,85.27
2023-05-10T03:34:51.628Z,85.22
2023-05-10T03:35:53.207Z,85.22
2023-05-10T03:36:55.060Z,85.25
2023-05-10T03:37:56.667Z,85.23
2023-05-10T03:38:58.242Z,85.17
2023-05-10T03:39:59.822Z,85.07
2023-05-10T03:41:01.460Z,85.06
2023-05-10T03:42:03.133Z,84.85
2023-05-10T03:43:05.134Z,84.93
2023-05-10T03:44:06.715Z,84.70
2023-05-10T03:45:09.089Z,84.79
2023-05-10T03:46:12.051Z,84.84
2023-05-10T03:47:13.653Z,84.77
2023-05-10T03:48:15.252Z,84.73
2023-05-10T03:49:16.859Z,84.77
2023-05-10T03:50:19.572Z,84.45
2023-05-10T03:51:21.538Z,84.30
2023-05-10T03:52:23.153Z,84.25
2023-05-10T03:53:24.857Z,84.10
2023-05-10T03:54:26.992Z,83.99
2023-05-10T03:55:29.240Z,84.00
2023-05-10T03:56:31.152Z,83.98
2023-05-10T03:57:32.911Z,84.01
2023-05-10T03:58:34.553Z,84.02
2023-05-10T03:59:36.513Z,83.96
2023-05-10T04:00:38.116Z,83.96
2023-05-10T04:01:39.778Z,83.94
2023-05-10T04:02:42.080Z,83.95
2023-05-10T04:03:43.891Z,83.85
2023-05-10T04:04:45.583Z,83.76
2023-05-10T04:05:47.647Z,83.77
2023-05-10T04:06:49.260Z,83.72
2023-05-10T04:07:52.072Z,83.66
2023-05-10T04:08:53.761Z,83.61
2023-05-10T04:09:55.664Z,83.48
2023-05-10T04:11:09.966Z,83.41
2023-05-10T04:12:11.555Z,83.41
2023-05-10T04:13:13.199Z,83.35
2023-05-10T04:14:14.891Z,83.11
2023-05-10T04:15:16.531Z,83.07
2023-05-10T04:16:18.170Z,82.92
2023-05-10T04:17:19.851Z,82.61
2023-05-10T04:18:21.492Z,82.67
2023-05-10T04:19:23.119Z,82.39
2023-05-10T04:20:24.734Z,82.02
2023-05-10T04:21:26.320Z,81.90
2023-05-10T04:22:28.907Z,81.82
2023-05-10T04:23:30.551Z,81.69
2023-05-10T04:24:32.210Z,81.38
2023-05-10T04:25:36.252Z,81.05
2023-05-10T04:26:37.840Z,80.75
2023-05-10T04:27:39.522Z,80.80
2023-05-10T04:28:41.106Z,80.74
2023-05-10T04:29:42.698Z,80.44
2023-05-10T04:30:44.415Z,80.03
2023-05-10T04:31:46.073Z,80.11
2023-05-10T04:32:47.688Z,80.17
2023-05-10T04:33:49.308Z,80.13
2023-05-10T04:34:52.279Z,79.95
2023-05-10T04:35:53.924Z,79.56
2023-05-10T04:36:55.529Z,79.64
2023-05-10T04:37:57.127Z,79.44
2023-05-10T04:38:58.728Z,79.40
2023-05-10T04:40:01.169Z,79.28
2023-05-10T04:41:09.518Z,78.70
2023-05-10T04:42:11.197Z,78.64
2023-05-10T04:43:12.853Z,78.65
2023-05-10T04:44:14.472Z,78.63
2023-05-10T04:45:16.699Z,78.35
2023-05-10T04:46:18.333Z,78.69
2023-05-10T04:47:19.998Z,78.66
2023-05-10T04:48:21.683Z,78.30
2023-05-10T04:49:23.446Z,78.10
2023-05-10T04:50:25.043Z,77.98
2023-05-10T04:51:26.660Z,77.92
2023-05-10T04:52:28.295Z,77.76
2023-05-10T04:53:29.931Z,77.87
2023-05-10T04:54:31.514Z,77.63
2023-05-10T04:55:33.145Z,77.80
2023-05-10T04:56:34.848Z,77.86
2023-05-10T04:57:36.465Z,78.06
2023-05-10T04:58:38.398Z,77.91
2023-05-10T04:59:40.047Z,77.45
2023-05-10T05:00:41.651Z,77.58
2023-05-10T05:01:43.529Z,76.90
2023-05-10T05:02:48.083Z,77.00
2023-05-10T05:03:49.815Z,76.59
2023-05-10T05:04:52.052Z,76.33
2023-05-10T05:05:53.640Z,76.17
2023-05-10T05:06:55.209Z,75.59
2023-05-10T05:07:57.320Z,75.33
2023-05-10T05:08:59.033Z,74.31
2023-05-10T05:10:00.844Z,73.50
2023-05-10T05:11:02.550Z,72.87
2023-05-10T05:12:04.403Z,72.09
2023-05-10T05:13:06.338Z,71.11
2023-05-10T05:14:07.944Z,70.05
2023-05-10T05:15:10.794Z,69.09
2023-05-10T05:16:12.520Z,68.42
2023-05-10T05:17:14.274Z,68.76
2023-05-10T05:18:15.880Z,69.22
2023-05-10T05:19:17.599Z,69.73
2023-05-10T05:20:20.058Z,69.41
2023-05-10T05:21:22.540Z,69.57
2023-05-10T05:22:29.036Z,68.54
2023-05-10T05:23:31.256Z,67.88
2023-05-10T05:24:37.481Z,67.26
2023-05-10T05:25:39.100Z,67.66
2023-05-10T05:26:40.684Z,68.69
2023-05-10T05:27:42.302Z,68.71
2023-05-10T05:28:44.122Z,69.76
2023-05-10T05:29:45.697Z,70.20
2023-05-10T05:30:47.515Z,70.75
2023-05-10T05:31:49.144Z,71.00
2023-05-10T05:32:50.802Z,71.45
2023-05-10T05:33:52.756Z,71.68
2023-05-10T05:34:54.414Z,71.41
2023-05-10T05:35:56.016Z,70.20
2023-05-10T05:36:57.617Z,70.55
2023-05-10T05:37:59.239Z,70.16
2023-05-10T05:39:00.849Z,70.43
2023-05-10T05:40:02.884Z,70.14
2023-05-10T05:41:04.529Z,70.29
2023-05-10T05:42:06.220Z,69.47
2023-05-10T05:43:07.818Z,69.63
2023-05-10T05:44:09.519Z,68.99
2023-05-10T05:45:14.386Z,68.29
2023-05-10T05:46:16.155Z,68.22
2023-05-10T05:47:17.807Z,68.45
2023-05-10T05:48:19.464Z,68.57
2023-05-10T05:49:21.136Z,68.47
2023-05-10T05:50:22.736Z,67.77
2023-05-10T05:51:24.445Z,67.54
2023-05-10T05:52:26.041Z,67.09
2023-05-10T05:53:27.718Z,67.48
2023-05-10T05:54:29.420Z,67.03
2023-05-10T05:55:32.581Z,66.95
2023-05-10T05:56:34.261Z,66.39
2023-05-10T05:57:35.886Z,65.83
2023-05-10T05:58:37.511Z,65.73
2023-05-10T05:59:42.997Z,66.42
2023-05-10T06:00:44.812Z,66.18
2023-05-10T06:01:46.543Z,65.17
2023-05-10T06:02:49.037Z,65.87
2023-05-10T06:03:53.177Z,65.64
2023-05-10T06:04:55.176Z,65.63
2023-05-10T06:05:56.767Z,64.73
2023-05-10T06:06:58.503Z,64.54
2023-05-10T06:08:01.144Z,64.77
2023-05-10T06:09:02.781Z,65.30
2023-05-10T06:10:05.009Z,64.39
2023-05-10T06:11:06.590Z,65.23
2023-05-10T06:12:08.236Z,63.66
2023-05-10T06:13:09.872Z,62.36
2023-05-10T06:14:11.553Z,63.50
2023-05-10T06:15:13.718Z,64.21
2023-05-10T06:16:15.670Z,64.15
2023-05-10T06:17:17.310Z,64.32
2023-05-10T06:18:18.992Z,64.68
2023-05-10T06:19:20.574Z,64.67
2023-05-10T06:20:22.181Z,64.29
2023-05-10T06:21:24.779Z,64.70
2023-05-10T06:22:26.480Z,64.64
2023-05-10T06:23:28.119Z,64.49
2023-05-10T06:24:29.824Z,63.88
2023-05-10T06:25:32.148Z,64.18
2023-05-10T06:26:34.184Z,64.29
2023-05-10T06:27:35.931Z,64.73
2023-05-10T06:28:39.436Z,64.36
2023-05-10T06:29:41.040Z,64.65
2023-05-10T06:30:42.723Z,64.05
2023-05-10T06:31:44.404Z,64.20
2023-05-10T06:32:46.536Z,64.22
2023-05-10T06:33:48.182Z,63.89
2023-05-10T06:34:49.780Z,64.32
2023-05-10T06:35:51.384Z,64.25
2023-05-10T06:36:53.040Z,63.76
2023-05-10T06:37:54.714Z,63.63
2023-05-10T06:38:56.609Z,63.72
2023-05-10T06:39:58.242Z,63.90
2023-05-10T06:40:59.838Z,63.75
2023-05-10T06:42:03.766Z,63.02
2023-05-10T06:43:05.698Z,63.04
2023-05-10T06:44:07.316Z,63.69
2023-05-10T06:45:10.241Z,63.44
2023-05-10T06:46:11.885Z,62.95
2023-05-10T06:47:13.553Z,62.96
2023-05-10T06:48:15.264Z,62.94
2023-05-10T06:49:16.954Z,62.09
2023-05-10T06:50:18.613Z,62.66
2023-05-10T06:51:22.163Z,62.46
2023-05-10T06:52:24.457Z,62.23
2023-05-10T06:53:26.209Z,62.24
2023-05-10T06:54:27.812Z,61.66
2023-05-10T06:55:30.244Z,61.47
2023-05-10T06:56:32.080Z,61.79
2023-05-10T06:57:33.832Z,62.56
2023-05-10T06:58:35.483Z,61.71
2023-05-10T06:59:37.586Z,61.84
2023-05-10T07:00:41.700Z,62.59
2023-05-10T07:01:43.775Z,61.71
2023-05-10T07:02:45.659Z,61.52
2023-05-10T07:03:47.391Z,61.96
2023-05-10T07:04:49.087Z,61.52
2023-05-10T07:05:50.693Z,63.00
2023-05-10T07:06:52.299Z,63.81
2023-05-10T07:07:53.940Z,63.54
2023-05-10T07:08:55.539Z,63.77
2023-05-10T07:09:58.698Z,64.17
2023-05-10T07:11:04.539Z,63.83
2023-05-10T07:12:07.887Z,63.92
2023-05-10T07:13:11.644Z,65.00
2023-05-10T07:14:13.298Z,64.10
2023-05-10T07:15:15.217Z,63.89
2023-05-10T07:16:17.040Z,63.86
2023-05-10T07:17:18.737Z,63.93
2023-05-10T07:18:20.459Z,63.37
2023-05-10T07:19:22.104Z,62.53
2023-05-10T07:20:23.794Z,62.95
2023-05-10T07:21:25.500Z,62.80
2023-05-10T07:22:50.197Z,62.75
2023-05-10T07:23:52.544Z,63.11
2023-05-10T07:24:54.285Z,62.91
2023-05-10T07:25:55.990Z,63.10
2023-05-10T07:26:57.581Z,63.04
2023-05-10T07:27:59.224Z,63.93
2023-05-10T07:29:00.808Z,63.67
2023-05-10T07:30:02.603Z,63.78
2023-05-10T07:31:04.268Z,63.46
2023-05-10T07:32:07.034Z,63.93
2023-05-10T07:33:10.003Z,62.29
2023-05-10T07:34:11.597Z,62.51
2023-05-10T07:35:13.235Z,62.66
2023-05-10T07:36:14.835Z,62.25
2023-05-10T07:37:16.472Z,62.18
2023-05-10T07:38:18.522Z,61.55
2023-05-10T07:39:27.155Z,62.78
2023-05-10T07:40:29.852Z,61.10
2023-05-10T07:41:31.449Z,61.09
2023-05-10T07:42:33.057Z,62.46
2023-05-10T07:43:34.648Z,61.11
2023-05-10T07:44:36.418Z,60.01
2023-05-10T07:45:38.122Z,60.58
2023-05-10T07:46:39.746Z,60.49
2023-05-10T07:47:41.424Z,60.92
2023-05-10T07:48:43.150Z,60.13
2023-05-10T07:49:44.957Z,60.23
2023-05-10T07:50:46.805Z,59.29
2023-05-10T07:51:48.408Z,60.28
2023-05-10T07:52:50.002Z,60.72
2023-05-10T07:53:51.584Z,60.60
2023-05-10T07:54:53.280Z,60.85
2023-05-10T07:55:55.826Z,60.45
2023-05-10T07:56:57.460Z,60.37
2023-05-10T07:58:02.055Z,57.71
2023-05-10T07:59:08.450Z,58.14
2023-05-10T08:00:13.857Z,57.70
2023-05-10T08:01:15.627Z,57.24
2023-05-10T08:02:17.331Z,57.62
2023-05-10T08:03:19.102Z,57.54
2023-05-10T08:04:20.900Z,57.77
2023-05-10T08:05:22.497Z,58.85
2023-05-10T08:06:24.380Z,58.47
2023-05-10T08:07:26.103Z,58.57
2023-05-10T08:08:27.779Z,58.72
2023-05-10T08:09:29.758Z,58.09
2023-05-10T08:10:31.356Z,57.39
2023-05-10T08:11:34.843Z,58.61
2023-05-10T08:12:36.728Z,59.16
2023-05-10T08:13:38.333Z,58.52
2023-05-10T08:14:39.990Z,59.07
2023-05-10T08:15:41.637Z,59.48
2023-05-10T08:16:43.459Z,59.22
2023-05-10T08:17:45.100Z,57.83
2023-05-10T08:18:48.008Z,57.85
2023-05-10T08:19:49.866Z,56.79
2023-05-10T08:20:51.446Z,57.93
2023-05-10T08:21:54.515Z,57.94
2023-05-10T08:22:56.219Z,57.83
2023-05-10T08:23:58.785Z,57.45
2023-05-10T08:25:00.385Z,57.05
2023-05-10T08:26:02.026Z,56.99
2023-05-10T08:27:03.686Z,57.28
2023-05-10T08:28:05.430Z,57.83
2023-05-10T08:29:07.069Z,57.70
2023-05-10T08:30:09.472Z,58.54
2023-05-10T08:31:11.142Z,57.83
2023-05-10T08:32:12.761Z,56.66
2023-05-10T08:33:14.466Z,56.15
2023-05-10T08:34:16.185Z,55.36
2023-05-10T08:35:17.949Z,55.67
2023-05-10T08:36:22.909Z,56.05
2023-05-10T08:37:24.869Z,56.94
2023-05-10T08:38:27.061Z,57.44
2023-05-10T08:39:30.647Z,57.59
2023-05-10T08:40:32.671Z,56.93
2023-05-10T08:41:34.611Z,57.13
2023-05-10T08:42:36.895Z,57.93
2023-05-10T08:43:38.573Z,56.70
2023-05-10T08:44:40.216Z,56.06
2023-05-10T08:45:43.494Z,56.89
2023-05-10T08:46:47.029Z,57.12
2023-05-10T08:47:48.760Z,56.22
2023-05-10T08:48:53.316Z,55.74
2023-05-10T08:49:54.981Z,55.09
2023-05-10T08:50:56.584Z,55.25
2023-05-10T08:51:58.168Z,55.81
2023-05-10T08:53:01.413Z,55.68
2023-05-10T08:54:04.011Z,56.32
2023-05-10T08:55:05.730Z,55.96
2023-05-10T08:56:07.686Z,56.99
2023-05-10T08:57:09.306Z,56.91
2023-05-10T08:58:11.051Z,56.06
2023-05-10T08:59:14.405Z,56.34
2023-05-10T09:00:16.387Z,56.60
2023-05-10T09:01:18.170Z,56.99
2023-05-10T09:02:19.821Z,56.35
2023-05-10T09:03:21.655Z,55.90
2023-05-10T09:04:23.356Z,56.48
2023-05-10T09:05:25.311Z,57.01
2023-05-10T09:06:26.954Z,55.44
2023-05-10T09:07:28.559Z,55.44
2023-05-10T09:08:31.765Z,55.24
2023-05-10T09:09:33.551Z,55.67
2023-05-10T09:10:35.523Z,55.62
2023-05-10T09:11:37.158Z,55.36
2023-05-10T09:12:38.845Z,55.64
2023-05-10T09:13:40.425Z,56.69
2023-05-10T09:14:42.005Z,56.67
2023-05-10T09:15:44.837Z,56.14
2023-05-10T09:16:46.551Z,55.81
2023-05-10T09:17:48.244Z,55.58
2023-05-10T09:18:50.809Z,55.25
2023-05-10T09:20:01.726Z,55.31
2023-05-10T09:21:03.318Z,55.30
2023-05-10T09:22:05.145Z,55.39
2023-05-10T09:23:06.960Z,54.00
2023-05-10T09:24:08.974Z,52.65
2023-05-10T09:25:17.395Z,54.26
2023-05-10T09:26:23.434Z,55.30
2023-05-10T09:27:28.000Z,55.37
2023-05-10T09:28:32.948Z,55.47
2023-05-10T09:29:42.312Z,54.94
2023-05-10T09:30:44.094Z,54.92
2023-05-10T09:31:52.003Z,55.38
2023-05-10T09:32:53.851Z,55.61
2023-05-10T09:33:55.548Z,55.41
2023-05-10T09:34:57.147Z,53.61
2023-05-10T09:36:08.268Z,53.77
2023-05-10T09:37:09.954Z,53.97
2023-05-10T09:38:11.826Z,54.23
2023-05-10T09:39:13.415Z,53.67
2023-05-10T09:40:19.457Z,53.80
2023-05-10T09:41:22.949Z,52.71
2023-05-10T09:42:25.320Z,51.52
2023-05-10T09:43:28.279Z,53.08
2023-05-10T09:44:29.881Z,54.18
2023-05-10T09:45:32.403Z,53.93
2023-05-10T09:46:36.911Z,54.14
2023-05-10T09:47:38.842Z,53.69
2023-05-10T09:48:47.061Z,52.58
2023-05-10T09:49:52.279Z,53.09
2023-05-10T09:51:00.069Z,53.06
2023-05-10T09:52:05.631Z,51.51
2023-05-10T09:53:07.766Z,52.24
2023-05-10T09:54:16.713Z,52.82
2023-05-10T09:55:22.821Z,53.87
2023-05-10T09:56:34.867Z,53.27
2023-05-10T09:57:36.483Z,53.43
2023-05-10T09:58:39.196Z,53.77
2023-05-10T09:59:43.843Z,53.14
2023-05-10T10:00:46.399Z,53.24
2023-05-10T10:01:52.170Z,53.07
2023-05-10T10:02:57.953Z,52.74
2023-05-10T10:03:59.717Z,53.05
2023-05-10T10:05:02.585Z,51.97
2023-05-10T10:06:04.461Z,52.51
2023-05-10T10:07:06.223Z,52.11
2023-05-10T10:08:07.929Z,50.64
2023-05-10T10:09:09.672Z,49.93
2023-05-10T10:10:13.455Z,50.50
2023-05-10T10:11:15.064Z,51.44
2023-05-10T10:12:16.704Z,51.05
2023-05-10T10:13:18.553Z,50.59
2023-05-10T10:14:20.225Z,51.38
2023-05-10T10:15:22.873Z,51.39
2023-05-10T10:16:25.110Z,50.41
2023-05-10T10:17:27.222Z,49.59
2023-05-10T10:18:29.789Z,49.74
2023-05-10T10:19:31.413Z,50.37
2023-05-10T10:20:32.981Z,50.57
2023-05-10T10:21:34.588Z,50.25
2023-05-10T10:22:36.230Z,50.36
2023-05-10T10:23:37.877Z,49.81
2023-05-10T10:24:41.223Z,49.36
2023-05-10T10:25:42.777Z,49.52
2023-05-10T10:26:44.471Z,49.92
2023-05-10T10:27:52.030Z,49.54
2023-05-10T10:29:15.389Z,49.45
2023-05-10T10:30:40.552Z,49.16
2023-05-10T10:31:46.588Z,49.51
2023-05-10T10:33:16.482Z,49.89
2023-05-10T10:34:29.494Z,51.12
2023-05-10T10:35:31.098Z,50.36
2023-05-10T10:36:34.854Z,51.22
2023-05-10T10:37:45.411Z,49.11
2023-05-10T10:38:46.985Z,49.89
2023-05-10T10:39:51.497Z,50.36
2023-05-10T10:41:12.959Z,50.00
2023-05-10T10:42:14.565Z,49.78
2023-05-10T10:43:26.406Z,49.47
2023-05-10T10:44:35.407Z,50.00
2023-05-10T10:45:41.982Z,49.46
2023-05-10T10:47:03.480Z,49.51
2023-05-10T10:48:23.925Z,50.56
2023-05-10T10:49:25.595Z,50.76
2023-05-10T10:50:28.346Z,50.93
2023-05-10T10:51:30.319Z,51.50
2023-05-10T10:52:36.358Z,51.38
2023-05-10T10:53:39.935Z,51.48
2023-05-10T10:54:42.906Z,49.92
2023-05-10T10:55:48.888Z,49.82
2023-05-10T10:57:14.631Z,50.27
2023-05-10T10:58:34.591Z,50.65
2023-05-10T10:59:36.384Z,52.04
2023-05-10T11:00:38.447Z,49.84
2023-05-10T11:01:40.836Z,48.95
2023-05-10T11:02:43.194Z,48.94
2023-05-10T11:04:05.100Z,47.40
2023-05-10T11:05:35.616Z,48.31
2023-05-10T11:06:37.369Z,48.52
2023-05-10T11:07:54.895Z,49.56
2023-05-10T11:08:56.487Z,48.43
2023-05-10T11:10:01.571Z,48.37
2023-05-10T11:11:05.649Z,49.17
2023-05-10T11:12:09.374Z,48.73
2023-05-10T11:13:13.716Z,47.88
2023-05-10T11:14:15.456Z,49.01
2023-05-10T11:15:17.341Z,47.45
2023-05-10T11:16:26.579Z,45.96
2023-05-10T11:17:28.983Z,47.20
2023-05-10T11:18:31.341Z,47.85
2023-05-10T11:19:33.033Z,47.51
2023-05-10T11:20:43.653Z,47.81
2023-05-10T11:21:48.937Z,47.44
2023-05-10T11:22:52.420Z,47.42
2023-05-10T11:23:58.604Z,47.75
2023-05-10T11:25:00.352Z,47.02
2023-05-10T11:26:06.968Z,47.20
2023-05-10T11:27:08.568Z,48.19
2023-05-10T11:28:10.675Z,49.00
2023-05-10T11:29:13.738Z,48.30
2023-05-10T11:30:16.071Z,47.03
2023-05-10T11:31:19.156Z,47.28
2023-05-10T11:32:20.756Z,47.99
2023-05-10T11:33:22.365Z,46.41
2023-05-10T11:34:36.781Z,46.71
2023-05-10T11:35:43.590Z,47.82
2023-05-10T11:36:45.446Z,47.42
2023-05-10T11:37:49.099Z,47.04
2023-05-10T11:38:50.780Z,48.00
2023-05-10T11:39:52.477Z,47.63
2023-05-10T11:40:54.725Z,47.75
2023-05-10T11:41:56.402Z,46.82
2023-05-10T11:42:58.252Z,47.36
2023-05-10T11:43:59.914Z,46.74
2023-05-10T11:45:02.039Z,46.57
2023-05-10T11:46:11.459Z,46.30
2023-05-10T11:47:13.119Z,47.52
2023-05-10T11:48:14.724Z,45.76
2023-05-10T11:49:16.362Z,45.05
2023-05-10T11:50:18.732Z,45.15
2023-05-10T11:51:24.173Z,46.80
2023-05-10T11:52:25.944Z,46.80
2023-05-10T11:53:29.461Z,45.87
2023-05-10T11:54:32.042Z,45.85
2023-05-10T11:55:34.737Z,46.00
2023-05-10T11:56:36.440Z,45.26
2023-05-10T11:57:39.664Z,45.59
2023-05-10T11:58:41.330Z,45.99
2023-05-10T11:59:43.338Z,45.77
2023-05-10T12:00:45.002Z,44.97
2023-05-10T12:01:46.668Z,45.01
2023-05-10T12:02:49.121Z,44.91
2023-05-10T12:03:51.581Z,45.94
2023-05-10T12:04:53.338Z,45.53
2023-05-10T12:05:55.986Z,45.13
2023-05-10T12:06:57.555Z,44.79
2023-05-10T12:08:15.590Z,45.95
2023-05-10T12:09:19.195Z,45.49
2023-05-10T12:10:28.560Z,45.48
2023-05-10T12:11:30.877Z,45.17
2023-05-10T12:12:45.324Z,46.74
2023-05-10T12:13:49.830Z,46.89
2023-05-10T12:14:51.875Z,47.49
2023-05-10T12:15:53.543Z,47.00
2023-05-10T12:16:55.429Z,47.21
2023-05-10T12:17:57.422Z,47.01
2023-05-10T12:19:00.998Z,45.15
2023-05-10T12:20:18.580Z,44.21
2023-05-10T12:21:21.411Z,44.42
2023-05-10T12:22:23.010Z,45.37
2023-05-10T12:23:24.632Z,45.61
2023-05-10T12:24:26.464Z,45.84
2023-05-10T12:25:31.474Z,45.62
2023-05-10T12:26:33.398Z,45.63
2023-05-10T12:27:40.948Z,45.06
2023-05-10T12:28:42.532Z,44.18
2023-05-10T12:29:45.583Z,44.47
2023-05-10T12:30:47.179Z,43.88
2023-05-10T12:31:59.493Z,43.84
2023-05-10T12:33:11.299Z,44.41
2023-05-10T12:34:12.851Z,43.74
2023-05-10T12:35:14.426Z,44.78
2023-05-10T12:36:16.655Z,44.66
2023-05-10T12:37:19.283Z,44.77
2023-05-10T12:38:30.439Z,43.07
2023-05-10T12:39:41.139Z,43.19
2023-05-10T12:40:42.836Z,43.41
2023-05-10T12:41:44.492Z,44.74
2023-05-10T12:42:46.138Z,45.46
2023-05-10T12:43:47.762Z,44.47
2023-05-10T12:44:49.381Z,45.37
2023-05-10T12:45:51.168Z,45.39
2023-05-10T12:46:52.766Z,45.86
2023-05-10T12:47:54.511Z,45.52
2023-05-10T12:49:07.882Z,45.69
2023-05-10T12:50:11.356Z,43.79
2023-05-10T12:51:14.195Z,44.25
2023-05-10T12:52:15.759Z,43.52
2023-05-10T12:53:18.412Z,44.11
2023-05-10T12:54:20.274Z,43.90
2023-05-10T12:55:21.858Z,43.87
2023-05-10T12:56:23.484Z,44.00
2023-05-10T12:57:25.044Z,43.88
2023-05-10T12:58:35.607Z,42.49
2023-05-10T12:59:38.164Z,42.68
2023-05-10T13:00:40.026Z,41.88
2023-05-10T13:01:41.599Z,43.09
2023-05-10T13:02:43.264Z,42.91
2023-05-10T13:03:44.894Z,43.66
2023-05-10T13:04:48.939Z,43.82
2023-05-10T13:05:52.508Z,43.89
2023-05-10T13:06:54.101Z,44.16
2023-05-10T13:07:55.655Z,44.24
2023-05-10T13:08:58.563Z,44.17
2023-05-10T13:10:00.212Z,44.71
2023-05-10T13:11:03.702Z,44.67
2023-05-10T13:12:05.726Z,45.10
2023-05-10T13:13:09.316Z,45.03
2023-05-10T13:14:10.953Z,44.92
2023-05-10T13:15:12.496Z,45.20
2023-05-10T13:16:14.100Z,45.22
2023-05-10T13:17:15.782Z,45.19
2023-05-10T13:18:17.425Z,44.56
2023-05-10T13:19:19.217Z,44.24
2023-05-10T13:20:20.959Z,44.91
2023-05-10T13:21:22.506Z,44.11
2023-05-10T13:22:36.533Z,44.51
2023-05-10T13:23:41.606Z,43.63
2023-05-10T13:24:43.215Z,43.76
2023-05-10T13:25:44.874Z,44.48
2023-05-10T13:26:46.458Z,44.35
2023-05-10T13:27:48.023Z,44.59
2023-05-10T13:28:50.628Z,43.69
2023-05-10T13:29:52.172Z,43.92
2023-05-10T13:30:53.830Z,44.29
2023-05-10T13:31:55.469Z,43.89
2023-05-10T13:32:57.157Z,44.61
2023-05-10T13:33:58.855Z,44.53
2023-05-10T13:35:00.453Z,44.07
2023-05-10T13:36:01.984Z,44.00